createdAt,value
2018-12-21T00:03:23.604Z,87.50
2018-12-21T00:08:26.759Z,87.40
2018-12-21T00:13:29.945Z,87.50
2018-12-21T00:18:33.141Z,87.20
2018-12-21T00:23:36.317Z,87.20
2018-12-21T00:28:39.480Z,86.70
2018-12-21T00:33:48.072Z,85.80
2018-12-21T00:38:56.728Z,85.90
2018-12-21T00:44:04.122Z,85.90
2018-12-21T00:49:07.330Z,85.70
2018-12-21T00:54:10.523Z,85.40
2018-12-21T00:59:13.664Z,85.20
2018-12-21T01:04:16.806Z,85.20
2018-12-21T01:09:20.055Z,84.70
2018-12-21T01:14:23.220Z,84.70
2018-12-21T01:19:26.410Z,84.90
2018-12-21T01:24:29.514Z,85.60
2018-12-21T01:29:32.728Z,85.40
2018-12-21T01:34:35.903Z,84.90
2018-12-21T01:39:39.022Z,84.90
2018-12-21T01:44:42.160Z,85.20
2018-12-21T01:49:45.276Z,84.70
2018-12-21T01:54:48.411Z,84.30
2018-12-21T01:59:51.610Z,83.50
2018-12-21T02:04:54.736Z,83.70
2018-12-21T02:09:57.919Z,83.50
2018-12-21T02:15:01.059Z,83.50
2018-12-21T02:20:04.461Z,83.50
2018-12-21T02:25:07.607Z,83.50
2018-12-21T02:30:10.788Z,84.00
2018-12-21T02:35:13.948Z,83.70
2018-12-21T02:40:17.105Z,83.30
2018-12-21T02:45:20.376Z,82.70
2018-12-21T02:50:24.002Z,82.60
2018-12-21T02:55:27.155Z,83.10
2018-12-21T03:00:30.300Z,82.80
2018-12-21T03:05:33.424Z,83.40
2018-12-21T03:10:36.587Z,83.10
2018-12-21T03:15:39.744Z,83.00
2018-12-21T03:20:42.831Z,83.20
2018-12-21T03:25:45.985Z,83.50
2018-12-21T03:30:49.105Z,83.40
2018-12-21T03:35:52.286Z,83.20
2018-12-21T03:40:55.416Z,83.50
2018-12-21T03:45:58.464Z,83.90
2018-12-21T03:51:01.641Z,84.90
2018-12-21T03:56:04.865Z,85.60
2018-12-21T04:01:08.012Z,86.00
2018-12-21T04:06:11.084Z,86.70
2018-12-21T04:11:14.558Z,85.80
2018-12-21T04:16:17.756Z,85.10
2018-12-21T04:21:20.909Z,84.70
2018-12-21T04:26:24.062Z,84.10
2018-12-21T04:31:27.177Z,84.10
2018-12-21T04:36:30.354Z,83.90
2018-12-21T04:41:33.436Z,84.50
2018-12-21T04:51:45.155Z,85.20
2018-12-21T04:56:48.756Z,85.30
2018-12-21T05:01:51.858Z,85.20
2018-12-21T05:06:55.037Z,85.20
2018-12-21T05:11:58.178Z,85.20
2018-12-21T05:17:01.281Z,85.00
2018-12-21T05:22:04.404Z,84.50
2018-12-21T05:27:07.814Z,84.10
2018-12-21T05:32:11.191Z,84.10
2018-12-21T05:37:14.575Z,83.90
2018-12-21T05:42:18.023Z,83.90
2018-12-21T05:47:21.494Z,83.40
2018-12-21T05:52:24.863Z,83.50
2018-12-21T05:57:28.251Z,84.10
2018-12-21T06:02:31.703Z,84.50
2018-12-21T06:07:35.169Z,84.90
2018-12-21T06:12:38.524Z,85.10
2018-12-21T06:17:41.873Z,85.40
2018-12-21T06:22:45.264Z,85.50
2018-12-21T06:27:48.401Z,85.60
2018-12-21T06:32:51.623Z,85.60
2018-12-21T06:37:54.775Z,85.50
2018-12-21T06:42:57.852Z,85.80
2018-12-21T06:48:00.986Z,85.70
2018-12-21T06:53:04.149Z,85.60
2018-12-21T06:58:07.268Z,85.10
2018-12-21T07:03:17.026Z,85.00
2018-12-21T07:08:15.673Z,84.90
2018-12-21T07:13:18.811Z,84.50
2018-12-21T07:18:22.049Z,84.30
2018-12-21T07:23:27.311Z,84.10
2018-12-21T07:28:30.326Z,83.70
2018-12-21T07:33:33.461Z,83.20
2018-12-21T07:38:36.621Z,83.10
2018-12-21T07:43:39.732Z,82.70
2018-12-21T07:48:42.881Z,82.50
2018-12-21T07:53:45.995Z,82.10
2018-12-21T07:58:56.903Z,81.70
2018-12-21T08:03:54.411Z,81.90
2018-12-21T08:08:57.591Z,81.10
2018-12-21T08:14:00.831Z,80.70
2018-12-21T08:19:04.005Z,80.50
2018-12-21T08:29:16.654Z,80.00
2018-12-21T08:34:19.813Z,79.80
2018-12-21T08:39:22.988Z,80.50
2018-12-21T08:44:26.259Z,79.90
2018-12-21T08:49:29.638Z,79.80
2018-12-21T08:54:32.793Z,80.00
2018-12-21T08:59:35.941Z,79.60
2018-12-21T09:04:39.163Z,79.30
2018-12-21T09:09:42.467Z,79.10
2018-12-21T09:14:45.741Z,78.90
2018-12-21T09:19:48.972Z,79.00
2018-12-21T09:24:52.179Z,78.40
2018-12-21T09:29:55.462Z,78.70
2018-12-21T09:34:58.572Z,79.50
2018-12-21T09:40:01.914Z,79.80
2018-12-21T09:45:05.325Z,80.50
2018-12-21T09:50:09.772Z,80.10
2018-12-21T09:55:12.870Z,79.90
2018-12-21T10:00:16.034Z,79.80
2018-12-21T10:05:19.323Z,79.90
2018-12-21T10:10:22.500Z,80.00
2018-12-21T10:15:25.662Z,80.00
2018-12-21T10:20:28.873Z,80.00
2018-12-21T10:25:32.002Z,80.60
2018-12-21T10:30:35.072Z,79.20
2018-12-21T10:35:38.246Z,79.60
2018-12-21T10:40:41.372Z,80.60
2018-12-21T10:45:44.512Z,84.30
2018-12-21T10:50:47.642Z,87.10
2018-12-21T10:55:50.763Z,89.60
2018-12-21T11:00:53.960Z,88.80
2018-12-21T11:05:57.236Z,90.20
2018-12-21T11:11:00.385Z,90.30
2018-12-21T11:16:03.601Z,90.70
2018-12-21T11:21:06.737Z,89.20
2018-12-21T11:26:10.071Z,88.50
2018-12-21T11:31:13.187Z,87.40
2018-12-21T11:36:16.444Z,87.80
2018-12-21T11:41:20.186Z,87.00
2018-12-21T11:46:23.290Z,87.30
2018-12-21T11:51:26.364Z,86.10
2018-12-21T11:56:29.529Z,86.00
2018-12-21T12:01:32.654Z,86.10
2018-12-21T12:06:35.787Z,87.80
2018-12-21T12:11:38.934Z,88.60
2018-12-21T12:16:42.146Z,87.70
2018-12-21T12:21:45.304Z,88.60
2018-12-21T12:26:48.436Z,89.80
2018-12-21T12:31:57.235Z,88.80
2018-12-21T12:37:00.371Z,89.80
2018-12-21T12:42:03.804Z,89.70
2018-12-21T12:47:07.091Z,90.40
2018-12-21T12:52:10.210Z,90.30
2018-12-21T12:57:13.405Z,91.30
2018-12-21T13:02:16.515Z,91.80
2018-12-21T13:07:19.698Z,92.10
2018-12-21T13:12:22.830Z,92.30
2018-12-21T13:17:25.961Z,92.80
2018-12-21T13:22:29.128Z,93.30
2018-12-21T13:27:32.272Z,93.30
2018-12-21T13:32:35.405Z,93.70
2018-12-21T13:37:38.542Z,93.30
2018-12-21T13:42:41.669Z,93.60
2018-12-21T13:47:44.895Z,92.90
2018-12-21T13:52:49.945Z,93.50
2018-12-21T13:57:53.052Z,93.00
2018-12-21T14:02:56.144Z,92.50
2018-12-21T14:07:59.258Z,92.40
2018-12-21T14:13:02.400Z,92.60
2018-12-21T14:18:05.516Z,92.10
2018-12-21T14:23:08.723Z,91.70
2018-12-21T14:28:11.840Z,91.40
2018-12-21T14:33:14.971Z,91.50
2018-12-21T14:38:18.125Z,91.00
2018-12-21T14:43:21.309Z,91.70
2018-12-21T14:48:24.493Z,91.80
2018-12-21T14:53:27.667Z,92.00
2018-12-21T14:58:30.958Z,92.80
2018-12-21T15:03:34.090Z,93.60
2018-12-21T15:08:37.202Z,93.90
2018-12-21T15:13:40.312Z,93.60
2018-12-21T15:18:43.434Z,93.00
2018-12-21T15:23:46.774Z,93.10
2018-12-21T15:28:49.954Z,92.00
2018-12-21T15:33:53.038Z,91.40
2018-12-21T15:38:56.164Z,91.70
2018-12-21T15:43:59.344Z,91.30
2018-12-21T15:49:02.455Z,91.60
2018-12-21T15:54:06.604Z,90.90
2018-12-21T15:59:10.064Z,90.10
2018-12-21T16:04:13.316Z,89.90
2018-12-21T16:09:16.558Z,90.10
2018-12-21T16:14:19.807Z,90.00
2018-12-21T16:19:23.056Z,90.20
2018-12-21T16:24:26.165Z,90.10
2018-12-21T16:29:29.319Z,90.00
2018-12-21T16:34:32.668Z,90.50
2018-12-21T16:39:35.872Z,88.50
2018-12-21T16:44:39.067Z,87.40
2018-12-21T16:49:42.340Z,87.40
2018-12-21T16:54:45.472Z,88.30
2018-12-21T16:59:48.690Z,88.70
2018-12-21T17:04:51.839Z,88.10
2018-12-21T17:09:55.793Z,88.50
2018-12-21T17:14:58.990Z,89.60
2018-12-21T17:20:04.444Z,90.10
2018-12-21T17:25:11.411Z,90.70
2018-12-21T17:30:15.208Z,91.10
2018-12-21T17:35:19.288Z,91.60
2018-12-21T17:40:25.463Z,92.20
2018-12-21T17:45:29.014Z,92.40
2018-12-21T17:50:33.988Z,91.80
2018-12-21T17:55:44.358Z,91.20
2018-12-21T18:00:47.715Z,90.70
2018-12-21T18:05:52.474Z,89.80
2018-12-21T18:10:57.401Z,88.50
2018-12-21T18:16:01.968Z,86.40
2018-12-21T18:21:07.919Z,83.90
2018-12-21T18:26:11.207Z,83.80
2018-12-21T18:31:25.793Z,83.30
2018-12-21T18:36:28.993Z,83.50
2018-12-21T18:41:32.256Z,82.80
2018-12-21T18:46:35.422Z,82.30
2018-12-21T18:51:38.580Z,81.50
2018-12-21T18:56:52.951Z,80.80
2018-12-21T19:01:56.180Z,80.20
2018-12-21T19:06:59.360Z,80.80
2018-12-21T19:12:02.514Z,80.70
2018-12-21T19:17:06.003Z,80.10
2018-12-21T19:22:10.693Z,80.00
2018-12-21T19:27:14.487Z,81.10
2018-12-21T19:32:17.634Z,80.90
2018-12-21T19:37:20.844Z,80.20
2018-12-21T19:42:24.544Z,80.00
2018-12-21T19:47:28.149Z,79.60
2018-12-21T19:52:31.702Z,77.70
2018-12-21T19:57:35.368Z,77.20
2018-12-21T20:02:39.062Z,76.70
2018-12-21T20:07:42.740Z,75.80
2018-12-21T20:12:45.988Z,75.70
2018-12-21T20:17:49.092Z,74.30
2018-12-21T20:22:52.258Z,73.40
2018-12-21T20:27:55.499Z,73.10
2018-12-21T20:32:58.637Z,72.20
2018-12-21T20:38:02.481Z,71.20
2018-12-21T20:43:06.669Z,70.60
2018-12-21T20:48:09.998Z,71.60
2018-12-21T20:53:13.485Z,72.10
2018-12-21T20:58:25.059Z,72.10
2018-12-21T21:03:28.252Z,70.90
2018-12-21T21:08:31.572Z,71.10
2018-12-21T21:13:34.867Z,70.10
2018-12-21T21:18:38.272Z,70.00
2018-12-21T21:23:42.025Z,70.90
2018-12-21T21:28:45.573Z,72.30
2018-12-21T21:33:49.755Z,72.60
2018-12-21T21:38:53.310Z,70.70
2018-12-21T21:43:56.748Z,68.30
2018-12-21T21:49:00.474Z,69.10
2018-12-21T21:54:03.787Z,72.30
2018-12-21T21:59:07.685Z,75.70
2018-12-21T22:04:11.180Z,77.90
2018-12-21T22:09:14.745Z,78.80
2018-12-21T22:14:18.200Z,78.60
2018-12-21T22:19:21.425Z,76.60
2018-12-21T22:24:24.652Z,76.00
2018-12-21T22:29:28.222Z,74.80
2018-12-21T22:34:31.654Z,73.40
2018-12-21T22:39:35.611Z,72.10
2018-12-21T22:44:39.257Z,72.00
2018-12-21T22:49:42.910Z,72.50
2018-12-21T23:00:02.535Z,72.60
2018-12-21T23:05:07.383Z,72.90
2018-12-21T23:10:10.910Z,73.30
2018-12-21T23:20:30.076Z,73.50
2018-12-21T23:25:34.444Z,72.20
2018-12-21T23:30:38.859Z,72.70
2018-12-21T23:35:43.422Z,72.90
2018-12-21T23:40:46.738Z,71.90
2018-12-21T23:45:50.658Z,70.90
2018-12-21T23:50:56.245Z,69.50
2018-12-21T23:55:59.946Z,68.50
